sensor_id;sensor_type;location;lat;lon;timestamp;temperature;humidity
16032;DHT22;8120;48.308;8.914;2023-03-21T00:00:53;4.50;89.40
16032;DHT22;8120;48.308;8.914;2023-03-21T00:03:22;4.50;90.00
16032;DHT22;8120;48.308;8.914;2023-03-21T00:05:50;4.40;90.20
16032;DHT22;8120;48.308;8.914;2023-03-21T00:08:24;4.40;90.20
16032;DHT22;8120;48.308;8.914;2023-03-21T00:10:56;4.40;89.90
16032;DHT22;8120;48.308;8.914;2023-03-21T00:13:26;4.40;89.80
16032;DHT22;8120;48.308;8.914;2023-03-21T00:16:03;4.40;89.60
16032;DHT22;8120;48.308;8.914;2023-03-21T00:18:48;4.40;89.10
16032;DHT22;8120;48.308;8.914;2023-03-21T00:21:19;4.40;88.80
16032;DHT22;8120;48.308;8.914;2023-03-21T00:24:09;4.40;89.10
16032;DHT22;8120;48.308;8.914;2023-03-21T00:26:37;4.40;88.80
16032;DHT22;8120;48.308;8.914;2023-03-21T00:29:05;4.50;89.20
16032;DHT22;8120;48.308;8.914;2023-03-21T00:31:32;4.50;89.10
16032;DHT22;8120;48.308;8.914;2023-03-21T00:34:00;4.60;89.30
16032;DHT22;8120;48.308;8.914;2023-03-21T00:36:28;4.60;89.10
16032;DHT22;8120;48.308;8.914;2023-03-21T00:38:56;4.60;89.30
16032;DHT22;8120;48.308;8.914;2023-03-21T00:41:27;4.70;88.90
16032;DHT22;8120;48.308;8.914;2023-03-21T00:44:11;4.70;88.60
16032;DHT22;8120;48.308;8.914;2023-03-21T00:46:41;4.60;87.40
16032;DHT22;8120;48.308;8.914;2023-03-21T00:49:26;4.60;87.70
16032;DHT22;8120;48.308;8.914;2023-03-21T00:51:54;4.50;87.60
16032;DHT22;8120;48.308;8.914;2023-03-21T00:54:30;4.50;87.80
16032;DHT22;8120;48.308;8.914;2023-03-21T00:57:00;4.50;88.10
16032;DHT22;8120;48.308;8.914;2023-03-21T00:59:28;4.50;88.50
16032;DHT22;8120;48.308;8.914;2023-03-21T01:01:56;4.50;88.60
16032;DHT22;8120;48.308;8.914;2023-03-21T01:04:26;4.50;88.90
16032;DHT22;8120;48.308;8.914;2023-03-21T01:06:54;4.60;89.00
16032;DHT22;8120;48.308;8.914;2023-03-21T01:09:23;4.60;89.00
16032;DHT22;8120;48.308;8.914;2023-03-21T01:11:52;4.60;88.10
16032;DHT22;8120;48.308;8.914;2023-03-21T01:14:22;4.70;88.30
16032;DHT22;8120;48.308;8.914;2023-03-21T01:16:51;4.70;88.30
16032;DHT22;8120;48.308;8.914;2023-03-21T01:19:22;4.80;88.30
16032;DHT22;8120;48.308;8.914;2023-03-21T01:22:12;4.80;88.10
16032;DHT22;8120;48.308;8.914;2023-03-21T01:24:39;4.80;88.10
16032;DHT22;8120;48.308;8.914;2023-03-21T01:27:19;4.80;88.00
16032;DHT22;8120;48.308;8.914;2023-03-21T01:29:48;4.80;88.10
16032;DHT22;8120;48.308;8.914;2023-03-21T01:32:16;4.80;88.50
16032;DHT22;8120;48.308;8.914;2023-03-21T01:34:44;4.80;88.90
16032;DHT22;8120;48.308;8.914;2023-03-21T01:37:12;4.80;89.00
16032;DHT22;8120;48.308;8.914;2023-03-21T01:39:43;4.80;88.70
16032;DHT22;8120;48.308;8.914;2023-03-21T01:42:12;4.80;88.90
16032;DHT22;8120;48.308;8.914;2023-03-21T01:44:54;4.80;88.60
16032;DHT22;8120;48.308;8.914;2023-03-21T01:47:24;4.80;88.60
16032;DHT22;8120;48.308;8.914;2023-03-21T01:49:54;4.80;88.80
16032;DHT22;8120;48.308;8.914;2023-03-21T01:52:26;4.80;89.00
16032;DHT22;8120;48.308;8.914;2023-03-21T01:55:06;4.80;89.00
16032;DHT22;8120;48.308;8.914;2023-03-21T01:57:39;4.80;89.40
16032;DHT22;8120;48.308;8.914;2023-03-21T02:00:23;4.80;89.20
16032;DHT22;8120;48.308;8.914;2023-03-21T02:02:55;4.80;88.60
16032;DHT22;8120;48.308;8.914;2023-03-21T02:05:43;4.80;88.70
16032;DHT22;8120;48.308;8.914;2023-03-21T02:08:14;4.80;89.10
16032;DHT22;8120;48.308;8.914;2023-03-21T02:10:43;4.80;89.20
16032;DHT22;8120;48.308;8.914;2023-03-21T02:13:13;4.80;89.10
16032;DHT22;8120;48.308;8.914;2023-03-21T02:15:48;4.80;89.10
16032;DHT22;8120;48.308;8.914;2023-03-21T02:18:25;4.80;89.20
16032;DHT22;8120;48.308;8.914;2023-03-21T02:21:26;4.90;89.10
16032;DHT22;8120;48.308;8.914;2023-03-21T02:24:19;4.90;88.90
16032;DHT22;8120;48.308;8.914;2023-03-21T02:27:05;4.90;88.70
16032;DHT22;8120;48.308;8.914;2023-03-21T02:32:45;5.00;89.30
16032;DHT22;8120;48.308;8.914;2023-03-21T02:35:27;5.00;89.20
16032;DHT22;8120;48.308;8.914;2023-03-21T02:38:10;5.00;88.60
16032;DHT22;8120;48.308;8.914;2023-03-21T02:40:47;5.10;88.10
16032;DHT22;8120;48.308;8.914;2023-03-21T02:43:21;5.10;88.30
16032;DHT22;8120;48.308;8.914;2023-03-21T02:45:53;5.20;87.80
16032;DHT22;8120;48.308;8.914;2023-03-21T02:48:28;5.10;87.60
16032;DHT22;8120;48.308;8.914;2023-03-21T02:51:16;5.10;87.90
16032;DHT22;8120;48.308;8.914;2023-03-21T02:53:50;5.10;88.30
16032;DHT22;8120;48.308;8.914;2023-03-21T02:56:40;5.00;88.00
16032;DHT22;8120;48.308;8.914;2023-03-21T02:59:09;5.00;88.50
16032;DHT22;8120;48.308;8.914;2023-03-21T03:01:37;5.00;89.00
16032;DHT22;8120;48.308;8.914;2023-03-21T03:04:17;5.00;89.20
16032;DHT22;8120;48.308;8.914;2023-03-21T03:07:00;5.00;89.10
16032;DHT22;8120;48.308;8.914;2023-03-21T03:09:38;5.00;89.30
16032;DHT22;8120;48.308;8.914;2023-03-21T03:12:20;5.00;89.20
16032;DHT22;8120;48.308;8.914;2023-03-21T03:14:55;5.00;89.00
16032;DHT22;8120;48.308;8.914;2023-03-21T03:17:47;5.00;88.90
16032;DHT22;8120;48.308;8.914;2023-03-21T03:20:24;5.00;89.30
16032;DHT22;8120;48.308;8.914;2023-03-21T03:23:03;4.90;89.30
16032;DHT22;8120;48.308;8.914;2023-03-21T03:25:38;4.80;89.50
16032;DHT22;8120;48.308;8.914;2023-03-21T03:28:10;4.80;89.90
16032;DHT22;8120;48.308;8.914;2023-03-21T03:30:40;4.70;90.10
16032;DHT22;8120;48.308;8.914;2023-03-21T03:33:27;4.70;90.10
16032;DHT22;8120;48.308;8.914;2023-03-21T03:35:58;4.60;90.30
16032;DHT22;8120;48.308;8.914;2023-03-21T03:38:33;4.50;90.80
16032;DHT22;8120;48.308;8.914;2023-03-21T03:41:05;4.50;91.00
16032;DHT22;8120;48.308;8.914;2023-03-21T03:43:39;4.50;91.30
16032;DHT22;8120;48.308;8.914;2023-03-21T03:46:12;4.40;91.40
16032;DHT22;8120;48.308;8.914;2023-03-21T03:48:47;4.40;91.40
16032;DHT22;8120;48.308;8.914;2023-03-21T03:51:19;4.30;91.80
16032;DHT22;8120;48.308;8.914;2023-03-21T03:53:52;4.30;92.20
16032;DHT22;8120;48.308;8.914;2023-03-21T03:56:22;4.20;92.60
16032;DHT22;8120;48.308;8.914;2023-03-21T03:58:51;4.10;92.80
16032;DHT22;8120;48.308;8.914;2023-03-21T04:01:19;4.00;93.30
16032;DHT22;8120;48.308;8.914;2023-03-21T04:03:48;3.90;93.10
16032;DHT22;8120;48.308;8.914;2023-03-21T04:06:29;3.80;93.20
16032;DHT22;8120;48.308;8.914;2023-03-21T04:08:57;3.70;93.40
16032;DHT22;8120;48.308;8.914;2023-03-21T04:11:32;3.60;93.20
16032;DHT22;8120;48.308;8.914;2023-03-21T04:14:00;3.60;95.00
16032;DHT22;8120;48.308;8.914;2023-03-21T04:16:28;3.60;95.80
16032;DHT22;8120;48.308;8.914;2023-03-21T04:19:01;3.50;94.80
16032;DHT22;8120;48.308;8.914;2023-03-21T04:21:29;3.40;94.60
16032;DHT22;8120;48.308;8.914;2023-03-21T04:23:57;3.20;94.40
16032;DHT22;8120;48.308;8.914;2023-03-21T04:26:25;3.10;94.50
16032;DHT22;8120;48.308;8.914;2023-03-21T04:29:00;3.00;94.80
16032;DHT22;8120;48.308;8.914;2023-03-21T04:31:29;2.90;95.20
16032;DHT22;8120;48.308;8.914;2023-03-21T04:34:01;2.90;96.00
16032;DHT22;8120;48.308;8.914;2023-03-21T04:36:29;2.80;95.80
16032;DHT22;8120;48.308;8.914;2023-03-21T04:39:05;2.70;95.80
16032;DHT22;8120;48.308;8.914;2023-03-21T04:41:38;2.60;96.20
16032;DHT22;8120;48.308;8.914;2023-03-21T04:44:08;2.50;96.30
16032;DHT22;8120;48.308;8.914;2023-03-21T04:46:38;2.50;96.70
16032;DHT22;8120;48.308;8.914;2023-03-21T04:49:06;2.50;97.80
16032;DHT22;8120;48.308;8.914;2023-03-21T04:51:35;2.50;99.00
16032;DHT22;8120;48.308;8.914;2023-03-21T04:54:03;2.50;98.70
16032;DHT22;8120;48.308;8.914;2023-03-21T04:56:31;2.50;98.90
16032;DHT22;8120;48.308;8.914;2023-03-21T04:59:05;2.60;99.90
16032;DHT22;8120;48.308;8.914;2023-03-21T05:01:35;2.80;99.90
16032;DHT22;8120;48.308;8.914;2023-03-21T05:04:03;2.80;99.90
16032;DHT22;8120;48.308;8.914;2023-03-21T05:06:32;2.70;99.40
16032;DHT22;8120;48.308;8.914;2023-03-21T05:09:00;2.80;99.90
16032;DHT22;8120;48.308;8.914;2023-03-21T05:11:32;2.70;99.30
16032;DHT22;8120;48.308;8.914;2023-03-21T05:14:03;2.70;98.30
16032;DHT22;8120;48.308;8.914;2023-03-21T05:16:31;2.60;97.70
16032;DHT22;8120;48.308;8.914;2023-03-21T05:19:02;2.60;97.60
16032;DHT22;8120;48.308;8.914;2023-03-21T05:21:30;2.60;96.50
16032;DHT22;8120;48.308;8.914;2023-03-21T05:23:59;2.60;95.90
16032;DHT22;8120;48.308;8.914;2023-03-21T05:26:29;2.50;94.50
16032;DHT22;8120;48.308;8.914;2023-03-21T05:28:56;2.50;95.20
16032;DHT22;8120;48.308;8.914;2023-03-21T05:31:24;2.60;95.00
16032;DHT22;8120;48.308;8.914;2023-03-21T05:33:52;2.70;95.40
16032;DHT22;8120;48.308;8.914;2023-03-21T05:36:21;2.80;95.10
16032;DHT22;8120;48.308;8.914;2023-03-21T05:38:49;2.70;93.10
16032;DHT22;8120;48.308;8.914;2023-03-21T05:41:18;2.60;92.50
16032;DHT22;8120;48.308;8.914;2023-03-21T05:43:47;2.80;94.00
16032;DHT22;8120;48.308;8.914;2023-03-21T05:46:14;2.70;93.70
16032;DHT22;8120;48.308;8.914;2023-03-21T05:48:42;2.60;93.20
16032;DHT22;8120;48.308;8.914;2023-03-21T05:51:10;2.70;93.30
16032;DHT22;8120;48.308;8.914;2023-03-21T05:53:40;2.70;93.50
16032;DHT22;8120;48.308;8.914;2023-03-21T05:56:08;2.70;93.70
16032;DHT22;8120;48.308;8.914;2023-03-21T05:58:36;2.80;93.10
16032;DHT22;8120;48.308;8.914;2023-03-21T06:01:05;2.70;92.40
16032;DHT22;8120;48.308;8.914;2023-03-21T06:03:33;2.70;92.50
16032;DHT22;8120;48.308;8.914;2023-03-21T06:06:01;2.70;92.90
16032;DHT22;8120;48.308;8.914;2023-03-21T06:08:29;2.90;94.40
16032;DHT22;8120;48.308;8.914;2023-03-21T06:10:58;3.00;94.90
16032;DHT22;8120;48.308;8.914;2023-03-21T06:13:26;3.20;94.40
16032;DHT22;8120;48.308;8.914;2023-03-21T06:15:54;3.60;93.50
16032;DHT22;8120;48.308;8.914;2023-03-21T06:18:22;4.10;90.00
16032;DHT22;8120;48.308;8.914;2023-03-21T06:20:50;4.60;89.40
16032;DHT22;8120;48.308;8.914;2023-03-21T06:23:17;5.30;84.20
16032;DHT22;8120;48.308;8.914;2023-03-21T06:25:47;6.10;83.10
16032;DHT22;8120;48.308;8.914;2023-03-21T06:28:16;6.80;77.60
16032;DHT22;8120;48.308;8.914;2023-03-21T06:30:44;7.00;72.40
16032;DHT22;8120;48.308;8.914;2023-03-21T06:33:11;7.10;73.80
16032;DHT22;8120;48.308;8.914;2023-03-21T06:35:39;7.20;71.60
16032;DHT22;8120;48.308;8.914;2023-03-21T06:38:07;7.30;71.70
16032;DHT22;8120;48.308;8.914;2023-03-21T06:40:37;7.50;72.00
16032;DHT22;8120;48.308;8.914;2023-03-21T06:43:05;7.60;72.10
16032;DHT22;8120;48.308;8.914;2023-03-21T06:45:35;7.60;72.00
16032;DHT22;8120;48.308;8.914;2023-03-21T06:48:03;7.50;73.40
16032;DHT22;8120;48.308;8.914;2023-03-21T06:50:34;7.70;72.70
16032;DHT22;8120;48.308;8.914;2023-03-21T06:53:03;7.50;72.40
16032;DHT22;8120;48.308;8.914;2023-03-21T06:55:31;7.50;73.20
16032;DHT22;8120;48.308;8.914;2023-03-21T06:57:58;7.50;74.70
16032;DHT22;8120;48.308;8.914;2023-03-21T07:00:26;7.60;73.30
16032;DHT22;8120;48.308;8.914;2023-03-21T07:02:56;8.00;71.20
16032;DHT22;8120;48.308;8.914;2023-03-21T07:05:24;8.50;72.60
16032;DHT22;8120;48.308;8.914;2023-03-21T07:07:52;9.30;68.50
16032;DHT22;8120;48.308;8.914;2023-03-21T07:10:19;9.90;66.60
16032;DHT22;8120;48.308;8.914;2023-03-21T07:12:47;9.90;65.50
16032;DHT22;8120;48.308;8.914;2023-03-21T07:15:15;9.90;66.10
16032;DHT22;8120;48.308;8.914;2023-03-21T07:17:43;9.40;68.60
16032;DHT22;8120;48.308;8.914;2023-03-21T07:20:12;9.00;70.60
16032;DHT22;8120;48.308;8.914;2023-03-21T07:22:41;8.90;71.30
16032;DHT22;8120;48.308;8.914;2023-03-21T07:25:09;8.70;71.50
16032;DHT22;8120;48.308;8.914;2023-03-21T07:27:37;8.70;73.80
16032;DHT22;8120;48.308;8.914;2023-03-21T07:30:09;8.50;74.00
16032;DHT22;8120;48.308;8.914;2023-03-21T07:32:37;8.20;76.00
16032;DHT22;8120;48.308;8.914;2023-03-21T07:35:06;8.20;76.70
16032;DHT22;8120;48.308;8.914;2023-03-21T07:37:36;8.00;76.10
16032;DHT22;8120;48.308;8.914;2023-03-21T07:40:04;8.10;76.80
16032;DHT22;8120;48.308;8.914;2023-03-21T07:42:36;8.20;75.90
16032;DHT22;8120;48.308;8.914;2023-03-21T07:45:04;8.30;76.10
16032;DHT22;8120;48.308;8.914;2023-03-21T07:47:33;8.80;73.80
16032;DHT22;8120;48.308;8.914;2023-03-21T07:50:03;8.60;74.60
16032;DHT22;8120;48.308;8.914;2023-03-21T07:52:31;9.30;71.30
16032;DHT22;8120;48.308;8.914;2023-03-21T07:55:00;9.60;72.90
16032;DHT22;8120;48.308;8.914;2023-03-21T07:57:28;10.40;67.90
16032;DHT22;8120;48.308;8.914;2023-03-21T07:59:56;10.80;66.90
16032;DHT22;8120;48.308;8.914;2023-03-21T08:02:24;11.00;64.50
16032;DHT22;8120;48.308;8.914;2023-03-21T08:04:52;10.90;63.80
16032;DHT22;8120;48.308;8.914;2023-03-21T08:07:20;10.50;65.70
16032;DHT22;8120;48.308;8.914;2023-03-21T08:09:48;10.30;66.20
16032;DHT22;8120;48.308;8.914;2023-03-21T08:12:17;9.80;66.90
16032;DHT22;8120;48.308;8.914;2023-03-21T08:14:45;9.80;67.50
16032;DHT22;8120;48.308;8.914;2023-03-21T08:17:13;9.60;68.80
16032;DHT22;8120;48.308;8.914;2023-03-21T08:19:40;9.60;69.00
16032;DHT22;8120;48.308;8.914;2023-03-21T08:22:08;9.70;67.70
16032;DHT22;8120;48.308;8.914;2023-03-21T08:24:36;10.10;66.80
16032;DHT22;8120;48.308;8.914;2023-03-21T08:27:04;10.50;64.60
16032;DHT22;8120;48.308;8.914;2023-03-21T08:29:33;11.00;64.70
16032;DHT22;8120;48.308;8.914;2023-03-21T08:32:06;11.60;61.40
16032;DHT22;8120;48.308;8.914;2023-03-21T08:34:38;11.80;62.10
16032;DHT22;8120;48.308;8.914;2023-03-21T08:37:08;12.00;59.90
16032;DHT22;8120;48.308;8.914;2023-03-21T08:39:36;11.50;60.20
16032;DHT22;8120;48.308;8.914;2023-03-21T08:42:04;11.20;61.50
16032;DHT22;8120;48.308;8.914;2023-03-21T08:44:33;11.40;61.00
16032;DHT22;8120;48.308;8.914;2023-03-21T08:47:01;11.20;61.00
16032;DHT22;8120;48.308;8.914;2023-03-21T08:49:29;11.30;60.50
16032;DHT22;8120;48.308;8.914;2023-03-21T08:51:57;12.40;58.60
16032;DHT22;8120;48.308;8.914;2023-03-21T08:54:25;12.50;56.60
16032;DHT22;8120;48.308;8.914;2023-03-21T08:56:53;12.10;57.90
16032;DHT22;8120;48.308;8.914;2023-03-21T08:59:21;12.60;56.80
16032;DHT22;8120;48.308;8.914;2023-03-21T09:01:50;12.50;57.40
16032;DHT22;8120;48.308;8.914;2023-03-21T09:04:18;12.40;57.70
16032;DHT22;8120;48.308;8.914;2023-03-21T09:06:46;12.30;57.10
16032;DHT22;8120;48.308;8.914;2023-03-21T09:09:16;13.20;56.10
16032;DHT22;8120;48.308;8.914;2023-03-21T09:11:44;13.20;54.90
16032;DHT22;8120;48.308;8.914;2023-03-21T09:14:12;13.30;55.70
16032;DHT22;8120;48.308;8.914;2023-03-21T09:16:39;13.10;54.80
16032;DHT22;8120;48.308;8.914;2023-03-21T09:19:09;13.20;56.60
16032;DHT22;8120;48.308;8.914;2023-03-21T09:21:37;13.10;56.60
16032;DHT22;8120;48.308;8.914;2023-03-21T09:24:05;13.20;57.00
16032;DHT22;8120;48.308;8.914;2023-03-21T09:26:33;13.20;54.70
16032;DHT22;8120;48.308;8.914;2023-03-21T09:29:02;13.40;55.60
16032;DHT22;8120;48.308;8.914;2023-03-21T09:31:31;13.60;56.00
16032;DHT22;8120;48.308;8.914;2023-03-21T09:33:59;13.70;55.30
16032;DHT22;8120;48.308;8.914;2023-03-21T09:36:28;13.60;54.70
16032;DHT22;8120;48.308;8.914;2023-03-21T09:38:57;13.50;54.50
16032;DHT22;8120;48.308;8.914;2023-03-21T09:41:36;13.60;55.50
16032;DHT22;8120;48.308;8.914;2023-03-21T09:44:15;14.10;54.60
16032;DHT22;8120;48.308;8.914;2023-03-21T09:46:50;14.10;54.10
16032;DHT22;8120;48.308;8.914;2023-03-21T09:49:22;14.30;54.30
16032;DHT22;8120;48.308;8.914;2023-03-21T09:51:54;14.50;53.00
16032;DHT22;8120;48.308;8.914;2023-03-21T09:54:25;14.40;54.50
16032;DHT22;8120;48.308;8.914;2023-03-21T09:56:56;14.70;52.70
16032;DHT22;8120;48.308;8.914;2023-03-21T09:59:30;14.40;52.80
16032;DHT22;8120;48.308;8.914;2023-03-21T10:02:02;14.80;53.60
16032;DHT22;8120;48.308;8.914;2023-03-21T10:04:31;14.60;53.20
16032;DHT22;8120;48.308;8.914;2023-03-21T10:07:01;14.00;55.20
16032;DHT22;8120;48.308;8.914;2023-03-21T10:09:30;14.10;54.10
16032;DHT22;8120;48.308;8.914;2023-03-21T10:12:02;14.10;55.20
16032;DHT22;8120;48.308;8.914;2023-03-21T10:14:34;14.70;54.20
16032;DHT22;8120;48.308;8.914;2023-03-21T10:17:08;14.80;53.30
16032;DHT22;8120;48.308;8.914;2023-03-21T10:19:42;14.50;52.90
16032;DHT22;8120;48.308;8.914;2023-03-21T10:22:13;14.60;54.00
16032;DHT22;8120;48.308;8.914;2023-03-21T10:24:41;14.30;53.50
16032;DHT22;8120;48.308;8.914;2023-03-21T10:27:09;13.80;53.70
16032;DHT22;8120;48.308;8.914;2023-03-21T10:29:41;14.40;52.90
16032;DHT22;8120;48.308;8.914;2023-03-21T10:32:12;14.80;53.20
16032;DHT22;8120;48.308;8.914;2023-03-21T10:34:42;14.50;52.40
16032;DHT22;8120;48.308;8.914;2023-03-21T10:37:13;14.20;53.20
16032;DHT22;8120;48.308;8.914;2023-03-21T10:39:44;14.50;53.20
16032;DHT22;8120;48.308;8.914;2023-03-21T10:42:17;14.80;52.80
16032;DHT22;8120;48.308;8.914;2023-03-21T10:44:48;14.80;50.90
16032;DHT22;8120;48.308;8.914;2023-03-21T10:47:19;14.90;51.70
16032;DHT22;8120;48.308;8.914;2023-03-21T10:49:48;15.00;52.30
16032;DHT22;8120;48.308;8.914;2023-03-21T10:52:35;14.80;51.00
16032;DHT22;8120;48.308;8.914;2023-03-21T10:55:07;14.60;52.60
16032;DHT22;8120;48.308;8.914;2023-03-21T10:57:36;14.80;52.00
16032;DHT22;8120;48.308;8.914;2023-03-21T11:00:06;14.80;51.90
16032;DHT22;8120;48.308;8.914;2023-03-21T11:02:47;14.80;51.90
16032;DHT22;8120;48.308;8.914;2023-03-21T11:05:20;14.60;52.70
16032;DHT22;8120;48.308;8.914;2023-03-21T11:07:58;14.80;51.90
16032;DHT22;8120;48.308;8.914;2023-03-21T11:10:29;15.10;52.40
16032;DHT22;8120;48.308;8.914;2023-03-21T11:13:02;15.20;50.70
16032;DHT22;8120;48.308;8.914;2023-03-21T11:15:33;15.00;50.40
16032;DHT22;8120;48.308;8.914;2023-03-21T11:18:14;14.80;52.10
16032;DHT22;8120;48.308;8.914;2023-03-21T11:20:51;14.80;52.00
16032;DHT22;8120;48.308;8.914;2023-03-21T11:23:22;14.80;52.10
16032;DHT22;8120;48.308;8.914;2023-03-21T11:25:52;14.80;52.20
16032;DHT22;8120;48.308;8.914;2023-03-21T11:28:22;15.00;51.40
16032;DHT22;8120;48.308;8.914;2023-03-21T11:30:53;14.90;51.00
16032;DHT22;8120;48.308;8.914;2023-03-21T11:33:22;14.90;50.70
16032;DHT22;8120;48.308;8.914;2023-03-21T11:36:00;14.60;50.00
16032;DHT22;8120;48.308;8.914;2023-03-21T11:38:33;14.50;49.40
16032;DHT22;8120;48.308;8.914;2023-03-21T11:41:03;14.60;49.00
16032;DHT22;8120;48.308;8.914;2023-03-21T11:43:34;14.90;49.10
16032;DHT22;8120;48.308;8.914;2023-03-21T11:46:05;15.00;48.00
16032;DHT22;8120;48.308;8.914;2023-03-21T11:48:37;14.70;48.90
16032;DHT22;8120;48.308;8.914;2023-03-21T11:51:15;14.90;49.00
16032;DHT22;8120;48.308;8.914;2023-03-21T11:53:54;14.90;49.70
16032;DHT22;8120;48.308;8.914;2023-03-21T11:56:27;15.10;49.50
16032;DHT22;8120;48.308;8.914;2023-03-21T11:59:10;15.10;49.20
16032;DHT22;8120;48.308;8.914;2023-03-21T12:01:50;15.30;49.30
16032;DHT22;8120;48.308;8.914;2023-03-21T12:04:37;15.40;48.50
16032;DHT22;8120;48.308;8.914;2023-03-21T12:07:19;15.60;49.80
16032;DHT22;8120;48.308;8.914;2023-03-21T12:09:55;15.50;49.20
16032;DHT22;8120;48.308;8.914;2023-03-21T12:12:31;15.80;48.40
16032;DHT22;8120;48.308;8.914;2023-03-21T12:15:11;15.90;46.90
16032;DHT22;8120;48.308;8.914;2023-03-21T12:17:49;15.50;48.30
16032;DHT22;8120;48.308;8.914;2023-03-21T12:20:31;15.40;47.30
16032;DHT22;8120;48.308;8.914;2023-03-21T12:23:23;15.80;47.80
16032;DHT22;8120;48.308;8.914;2023-03-21T12:26:03;15.70;49.00
16032;DHT22;8120;48.308;8.914;2023-03-21T12:28:39;15.90;46.90
16032;DHT22;8120;48.308;8.914;2023-03-21T12:31:15;16.10;46.90
16032;DHT22;8120;48.308;8.914;2023-03-21T12:34:00;15.70;46.20
16032;DHT22;8120;48.308;8.914;2023-03-21T12:36:40;15.70;48.40
16032;DHT22;8120;48.308;8.914;2023-03-21T12:39:18;15.80;47.60
16032;DHT22;8120;48.308;8.914;2023-03-21T12:41:58;15.80;47.20
16032;DHT22;8120;48.308;8.914;2023-03-21T12:44:31;16.30;47.60
16032;DHT22;8120;48.308;8.914;2023-03-21T12:47:03;16.20;44.80
16032;DHT22;8120;48.308;8.914;2023-03-21T12:49:38;16.00;44.40
16032;DHT22;8120;48.308;8.914;2023-03-21T12:52:13;15.60;44.90
16032;DHT22;8120;48.308;8.914;2023-03-21T12:54:47;16.00;45.50
16032;DHT22;8120;48.308;8.914;2023-03-21T12:57:20;15.90;45.10
16032;DHT22;8120;48.308;8.914;2023-03-21T12:59:54;16.10;44.50
16032;DHT22;8120;48.308;8.914;2023-03-21T13:02:28;16.00;43.40
16032;DHT22;8120;48.308;8.914;2023-03-21T13:05:02;16.20;43.90
16032;DHT22;8120;48.308;8.914;2023-03-21T13:07:34;16.20;44.10
16032;DHT22;8120;48.308;8.914;2023-03-21T13:10:12;16.00;44.40
16032;DHT22;8120;48.308;8.914;2023-03-21T13:12:57;16.00;45.00
16032;DHT22;8120;48.308;8.914;2023-03-21T13:15:50;15.80;44.80
16032;DHT22;8120;48.308;8.914;2023-03-21T13:18:34;15.80;45.10
16032;DHT22;8120;48.308;8.914;2023-03-21T13:21:11;15.90;44.50
16032;DHT22;8120;48.308;8.914;2023-03-21T13:23:54;16.00;44.50
16032;DHT22;8120;48.308;8.914;2023-03-21T13:26:31;16.30;42.40
16032;DHT22;8120;48.308;8.914;2023-03-21T13:29:01;16.30;43.00
16032;DHT22;8120;48.308;8.914;2023-03-21T13:31:43;16.60;41.80
16032;DHT22;8120;48.308;8.914;2023-03-21T13:34:20;16.50;42.80
16032;DHT22;8120;48.308;8.914;2023-03-21T13:36:50;16.30;42.50
16032;DHT22;8120;48.308;8.914;2023-03-21T13:39:23;16.30;43.20
16032;DHT22;8120;48.308;8.914;2023-03-21T13:41:51;16.10;42.50
16032;DHT22;8120;48.308;8.914;2023-03-21T13:44:30;16.10;42.40
16032;DHT22;8120;48.308;8.914;2023-03-21T13:47:00;16.40;43.70
16032;DHT22;8120;48.308;8.914;2023-03-21T13:49:31;16.50;42.70
16032;DHT22;8120;48.308;8.914;2023-03-21T13:52:01;16.00;42.30
16032;DHT22;8120;48.308;8.914;2023-03-21T13:54:48;16.10;43.70
16032;DHT22;8120;48.308;8.914;2023-03-21T13:57:34;15.90;43.70
16032;DHT22;8120;48.308;8.914;2023-03-21T14:00:18;16.00;43.20
16032;DHT22;8120;48.308;8.914;2023-03-21T14:02:52;15.80;44.70
16032;DHT22;8120;48.308;8.914;2023-03-21T14:05:23;15.60;45.00
16032;DHT22;8120;48.308;8.914;2023-03-21T14:07:54;15.60;45.60
16032;DHT22;8120;48.308;8.914;2023-03-21T14:10:38;15.60;46.20
16032;DHT22;8120;48.308;8.914;2023-03-21T14:13:08;15.40;46.50
16032;DHT22;8120;48.308;8.914;2023-03-21T14:15:41;15.20;47.30
16032;DHT22;8120;48.308;8.914;2023-03-21T14:18:22;15.30;46.40
16032;DHT22;8120;48.308;8.914;2023-03-21T14:21:16;15.40;45.40
16032;DHT22;8120;48.308;8.914;2023-03-21T14:23:55;15.50;46.60
16032;DHT22;8120;48.308;8.914;2023-03-21T14:26:24;15.40;46.30
16032;DHT22;8120;48.308;8.914;2023-03-21T14:28:52;15.60;46.70
16032;DHT22;8120;48.308;8.914;2023-03-21T14:31:22;15.60;45.90
16032;DHT22;8120;48.308;8.914;2023-03-21T14:33:51;15.40;47.30
16032;DHT22;8120;48.308;8.914;2023-03-21T14:36:23;15.50;47.40
16032;DHT22;8120;48.308;8.914;2023-03-21T14:39:04;15.50;47.90
16032;DHT22;8120;48.308;8.914;2023-03-21T14:41:43;15.50;48.90
16032;DHT22;8120;48.308;8.914;2023-03-21T14:44:16;15.50;48.50
16032;DHT22;8120;48.308;8.914;2023-03-21T14:46:49;15.40;49.30
16032;DHT22;8120;48.308;8.914;2023-03-21T14:49:20;15.30;48.20
16032;DHT22;8120;48.308;8.914;2023-03-21T14:51:50;15.20;48.00
16032;DHT22;8120;48.308;8.914;2023-03-21T14:54:19;15.10;48.70
16032;DHT22;8120;48.308;8.914;2023-03-21T14:56:51;15.00;49.00
16032;DHT22;8120;48.308;8.914;2023-03-21T14:59:22;15.00;50.00
16032;DHT22;8120;48.308;8.914;2023-03-21T15:01:53;14.90;49.60
16032;DHT22;8120;48.308;8.914;2023-03-21T15:04:21;14.70;49.90
16032;DHT22;8120;48.308;8.914;2023-03-21T15:06:51;14.70;50.00
16032;DHT22;8120;48.308;8.914;2023-03-21T15:09:22;14.90;50.30
16032;DHT22;8120;48.308;8.914;2023-03-21T15:11:51;14.90;50.90
16032;DHT22;8120;48.308;8.914;2023-03-21T15:14:28;14.80;51.70
16032;DHT22;8120;48.308;8.914;2023-03-21T15:17:00;14.80;50.40
16032;DHT22;8120;48.308;8.914;2023-03-21T15:19:32;14.60;51.30
16032;DHT22;8120;48.308;8.914;2023-03-21T15:22:06;14.40;51.40
16032;DHT22;8120;48.308;8.914;2023-03-21T15:24:37;14.40;51.70
16032;DHT22;8120;48.308;8.914;2023-03-21T15:27:10;14.40;51.60
16032;DHT22;8120;48.308;8.914;2023-03-21T15:29:39;14.50;52.40
16032;DHT22;8120;48.308;8.914;2023-03-21T15:32:15;14.50;52.30
16032;DHT22;8120;48.308;8.914;2023-03-21T15:34:44;14.50;52.70
16032;DHT22;8120;48.308;8.914;2023-03-21T15:37:16;14.50;51.50
16032;DHT22;8120;48.308;8.914;2023-03-21T15:39:44;14.30;51.40
16032;DHT22;8120;48.308;8.914;2023-03-21T15:42:27;14.20;50.10
16032;DHT22;8120;48.308;8.914;2023-03-21T15:44:57;14.10;51.00
16032;DHT22;8120;48.308;8.914;2023-03-21T15:47:47;14.00;50.80
16032;DHT22;8120;48.308;8.914;2023-03-21T15:50:24;14.10;50.90
16032;DHT22;8120;48.308;8.914;2023-03-21T15:52:53;14.10;51.00
16032;DHT22;8120;48.308;8.914;2023-03-21T15:55:23;14.20;51.30
16032;DHT22;8120;48.308;8.914;2023-03-21T15:57:58;14.20;51.60
16032;DHT22;8120;48.308;8.914;2023-03-21T16:00:31;14.10;50.10
16032;DHT22;8120;48.308;8.914;2023-03-21T16:03:09;14.00;50.30
16032;DHT22;8120;48.308;8.914;2023-03-21T16:05:42;14.10;50.40
16032;DHT22;8120;48.308;8.914;2023-03-21T16:08:27;14.10;50.40
16032;DHT22;8120;48.308;8.914;2023-03-21T16:11:06;14.10;50.50
16032;DHT22;8120;48.308;8.914;2023-03-21T16:13:33;14.20;51.00
16032;DHT22;8120;48.308;8.914;2023-03-21T16:16:01;14.10;51.70
16032;DHT22;8120;48.308;8.914;2023-03-21T16:18:31;14.10;51.40
16032;DHT22;8120;48.308;8.914;2023-03-21T16:20:58;14.10;51.40
16032;DHT22;8120;48.308;8.914;2023-03-21T16:23:26;14.00;52.20
16032;DHT22;8120;48.308;8.914;2023-03-21T16:25:55;13.90;52.60
16032;DHT22;8120;48.308;8.914;2023-03-21T16:28:24;13.80;53.20
16032;DHT22;8120;48.308;8.914;2023-03-21T16:30:52;13.70;54.40